Time;durP1;ratioP1;P1;durP2;ratioP2;P2;SDS_P1;SDS_P2;PMS_P1;PMS_P2;Temp;Humidity;BMP_temperature;BMP_pressure;BME280_temperature;BME280_humidity;BME280_pressure;Samples;Min_cycle;Max_cycle;Signal;HPM_P1;HPM_P2
2021/12/19 00:00:50;;;;;;;12.47;3.93;;;8.10;99.90;;;;;;5134071;27;20161;-69
2021/12/19 00:10:55;;;;;;;8.67;2.93;;;8.10;99.90;;;;;;5133809;27;20599;-69
2021/12/19 00:13:23;;;;;;;9.73;3.73;;;8.10;99.90;;;;;;5115203;27;20206;-70
2021/12/19 00:15:49;;;;;;;8.47;3.73;;;8.10;99.90;;;;;;5115237;27;20263;-71
2021/12/19 00:18:14;;;;;;;9.23;3.53;;;8.10;99.90;;;;;;5133475;27;20629;-70
2021/12/19 00:20:40;;;;;;;6.80;2.90;;;8.10;99.90;;;;;;5133694;27;20180;-71
2021/12/19 00:23:06;;;;;;;10.27;3.53;;;8.10;99.90;;;;;;5132391;27;20196;-70
2021/12/19 00:25:31;;;;;;;15.60;3.13;;;8.10;99.90;;;;;;5133905;27;20184;-70
2021/12/19 00:27:57;;;;;;;15.23;4.07;;;8.10;99.90;;;;;;5131988;27;20680;-70
2021/12/19 00:30:22;;;;;;;12.80;4.10;;;8.10;99.90;;;;;;5131965;27;20723;-69
2021/12/19 00:32:48;;;;;;;10.03;3.30;;;8.10;99.90;;;;;;5131970;27;20199;-70
2021/12/19 00:35:13;;;;;;;9.93;4.10;;;8.10;99.90;;;;;;5133303;27;20196;-72
2021/12/19 00:37:39;;;;;;;8.13;3.50;;;8.10;99.90;;;;;;5131894;27;20169;-73
2021/12/19 00:40:05;;;;;;;10.13;3.67;;;8.10;99.90;;;;;;5131898;27;20597;-72
2021/12/19 00:42:34;;;;;;;13.03;4.47;;;8.10;99.90;;;;;;5131580;27;20173;-71
2021/12/19 00:45:15;;;;;;;10.83;4.20;;;8.10;99.90;;;;;;5114820;27;20171;-71
2021/12/19 00:47:40;;;;;;;10.73;4.50;;;8.10;99.90;;;;;;5114506;27;20215;-70
2021/12/19 00:50:06;;;;;;;12.53;5.00;;;8.10;99.90;;;;;;5114668;27;20618;-70
2021/12/19 00:52:32;;;;;;;10.23;4.50;;;8.10;99.90;;;;;;5114168;27;20169;-72
2021/12/19 00:54:57;;;;;;;10.87;4.53;;;8.10;99.90;;;;;;5131818;27;20534;-72
2021/12/19 00:57:23;;;;;;;9.20;4.53;;;8.10;99.90;;;;;;5131198;27;20535;-70
2021/12/19 00:59:48;;;;;;;7.17;4.13;;;8.10;99.90;;;;;;5131475;27;20625;-70
2021/12/19 01:02:14;;;;;;;10.33;4.40;;;8.10;99.90;;;;;;5131207;27;20181;-72
2021/12/19 01:04:40;;;;;;;12.57;5.30;;;8.00;99.90;;;;;;5128972;27;20287;-71
2021/12/19 01:07:05;;;;;;;14.00;5.20;;;8.00;99.90;;;;;;5130127;27;20181;-71
2021/12/19 01:09:31;;;;;;;9.80;4.33;;;8.00;99.90;;;;;;5130173;27;20585;-70
2021/12/19 01:11:56;;;;;;;8.87;4.30;;;8.00;99.90;;;;;;5131240;27;20161;-70
2021/12/19 01:14:22;;;;;;;9.83;4.60;;;8.00;99.90;;;;;;5131522;27;20205;-70
2021/12/19 01:16:48;;;;;;;14.67;5.50;;;8.00;99.90;;;;;;5131103;27;20255;-70
2021/12/19 01:19:13;;;;;;;11.90;4.63;;;8.00;99.90;;;;;;5130903;27;20639;-72
2021/12/19 01:21:39;;;;;;;9.67;5.67;;;8.00;99.90;;;;;;5131384;27;20253;-71
2021/12/19 01:24:05;;;;;;;7.60;4.93;;;8.00;99.90;;;;;;5132420;27;20196;-71
2021/12/19 01:26:30;;;;;;;10.67;5.03;;;8.00;99.90;;;;;;5132203;27;20164;-72
2021/12/19 01:28:56;;;;;;;11.03;5.53;;;8.00;99.90;;;;;;5130763;27;20169;-71
2021/12/19 01:31:22;;;;;;;13.60;6.00;;;7.90;99.90;;;;;;5131075;27;20277;-71
2021/12/19 01:33:47;;;;;;;15.33;6.30;;;7.90;99.90;;;;;;5130821;27;20204;-71
2021/12/19 01:36:13;;;;;;;12.13;6.50;;;8.00;99.90;;;;;;5130819;27;20613;-71
2021/12/19 01:38:39;;;;;;;12.23;6.83;;;7.90;99.90;;;;;;5113524;27;20161;-71
2021/12/19 01:41:05;;;;;;;12.90;6.57;;;7.90;99.90;;;;;;5131770;27;20165;-70
2021/12/19 01:43:31;;;;;;;7.30;5.63;;;7.90;99.90;;;;;;5113661;27;20200;-71
2021/12/19 01:45:58;;;;;;;10.10;6.50;;;7.90;99.90;;;;;;5113806;27;20169;-71
2021/12/19 01:48:23;;;;;;;8.97;5.90;;;7.90;99.90;;;;;;5113588;27;20176;-71
2021/12/19 01:50:50;;;;;;;10.73;6.70;;;7.90;99.90;;;;;;5130698;27;20264;-73
2021/12/19 01:53:16;;;;;;;10.83;5.87;;;7.90;99.90;;;;;;5113449;27;20201;-73
2021/12/19 01:55:43;;;;;;;12.40;6.23;;;7.90;99.90;;;;;;5113534;28;20248;-71
2021/12/19 01:58:10;;;;;;;11.17;5.47;;;8.00;99.90;;;;;;5130498;27;20620;-71
2021/12/19 02:00:40;;;;;;;10.63;4.93;;;8.00;99.90;;;;;;5129647;27;20173;-71
2021/12/19 02:03:08;;;;;;;8.33;4.97;;;7.90;99.90;;;;;;5111093;28;20193;-70
2021/12/19 02:05:34;;;;;;;8.37;4.93;;;7.90;99.90;;;;;;5112981;28;20267;-72
2021/12/19 02:08:00;;;;;;;8.60;4.20;;;7.90;99.90;;;;;;5112967;28;20644;-71
2021/12/19 02:10:28;;;;;;;9.53;3.43;;;7.90;99.90;;;;;;5113407;28;20430;-72
2021/12/19 02:12:55;;;;;;;7.17;3.83;;;7.90;99.90;;;;;;5113148;28;20209;-72
2021/12/19 02:15:25;;;;;;;8.10;4.30;;;7.90;99.90;;;;;;5131047;28;20176;-69
2021/12/19 02:17:53;;;;;;;7.57;3.60;;;7.90;99.90;;;;;;5112530;28;20247;-74
2021/12/19 02:20:20;;;;;;;9.27;4.23;;;8.00;99.90;;;;;;5112871;28;20354;-73
2021/12/19 02:22:46;;;;;;;7.80;3.67;;;8.10;99.90;;;;;;5110880;28;20180;-73
2021/12/19 02:25:14;;;;;;;7.47;3.33;;;8.10;99.90;;;;;;5121976;27;20169;-72
2021/12/19 02:27:40;;;;;;;8.47;3.20;;;8.10;99.90;;;;;;5114839;27;20175;-73
2021/12/19 02:30:08;;;;;;;9.23;2.93;;;8.10;99.90;;;;;;5117649;27;20169;-72
2021/12/19 02:32:36;;;;;;;7.47;2.90;;;8.00;99.90;;;;;;5117227;27;20169;-73
2021/12/19 02:35:07;;;;;;;8.97;3.40;;;8.00;99.90;;;;;;5117865;27;20173;-72
2021/12/19 02:40:26;;;;;;;7.73;3.10;;;8.00;99.90;;;;;;5136086;27;20210;-72
2021/12/19 02:48:20;;;;;;;7.50;2.30;;;8.00;99.90;;;;;;5136004;27;20180;-72
2021/12/19 02:50:51;;;;;;;7.80;2.50;;;8.00;99.90;;;;;;5135608;27;20165;-73
2021/12/19 02:53:36;;;;;;;4.00;2.90;;;8.00;99.90;;;;;;5135859;27;20201;-72
2021/12/19 02:56:06;;;;;;;7.50;3.13;;;8.00;99.90;;;;;;5135656;27;20172;-72
2021/12/19 02:58:32;;;;;;;5.57;3.03;;;8.00;99.90;;;;;;5135401;27;20177;-72
2021/12/19 03:01:01;;;;;;;6.30;3.03;;;7.90;99.90;;;;;;5135750;27;20165;-72
2021/12/19 03:03:27;;;;;;;5.47;2.43;;;8.00;99.90;;;;;;5136218;27;20187;-72
2021/12/19 03:05:52;;;;;;;7.40;2.17;;;8.00;99.90;;;;;;5135631;27;20256;-72
2021/12/19 03:08:18;;;;;;;5.40;2.47;;;8.00;99.90;;;;;;5135522;27;20218;-72
2021/12/19 03:17:57;;;;;;;5.60;2.13;;;8.00;99.90;;;;;;5135301;27;20288;-73
2021/12/19 03:19:07;;;;;;;3.73;2.30;;;8.00;99.90;;;;;;5135064;27;20171;-74
2021/12/19 03:21:33;;;;;;;4.07;2.00;;;8.00;99.90;;;;;;5134083;27;20730;-72
2021/12/19 03:23:58;;;;;;;4.03;2.03;;;7.90;99.90;;;;;;5133081;27;20189;-74
2021/12/19 03:26:24;;;;;;;7.17;2.30;;;8.00;99.90;;;;;;5114985;27;20584;-72
2021/12/19 03:28:49;;;;;;;8.47;2.87;;;7.90;99.90;;;;;;5134913;27;20202;-72
2021/12/19 03:31:15;;;;;;;5.23;2.33;;;7.90;99.90;;;;;;5116783;27;20173;-72
2021/12/19 03:33:41;;;;;;;8.10;2.63;;;7.90;99.90;;;;;;5116753;27;20220;-72
2021/12/19 03:36:07;;;;;;;8.37;2.57;;;8.00;99.90;;;;;;5135018;27;20260;-73
2021/12/19 03:38:39;;;;;;;7.43;2.13;;;8.00;99.90;;;;;;5116573;27;20204;-72
2021/12/19 03:41:13;;;;;;;4.03;2.63;;;7.90;99.90;;;;;;5116463;27;20173;-72
2021/12/19 03:43:39;;;;;;;6.23;2.73;;;8.00;99.90;;;;;;5116763;27;20215;-72
2021/12/19 03:46:05;;;;;;;5.70;2.40;;;8.00;99.90;;;;;;5135399;27;20212;-72
2021/12/19 03:48:30;;;;;;;3.53;2.20;;;8.00;99.90;;;;;;5116400;27;20173;-72
2021/12/19 03:50:56;;;;;;;3.80;2.23;;;8.00;99.90;;;;;;5116342;27;20180;-72
2021/12/19 03:53:22;;;;;;;4.80;1.97;;;8.00;99.90;;;;;;5116097;27;20203;-72
2021/12/19 03:55:49;;;;;;;3.23;1.80;;;8.00;99.90;;;;;;5116277;27;20268;-72
2021/12/19 03:58:15;;;;;;;3.40;2.00;;;7.90;99.90;;;;;;5134490;27;20168;-72
2021/12/19 04:00:42;;;;;;;3.03;1.60;;;8.00;99.90;;;;;;5116171;27;20165;-73
2021/12/19 04:03:10;;;;;;;7.07;2.13;;;7.90;99.90;;;;;;5116090;27;20200;-73
2021/12/19 04:05:38;;;;;;;6.23;2.53;;;7.90;99.90;;;;;;5134493;27;20633;-72
2021/12/19 04:08:04;;;;;;;5.87;2.30;;;8.00;99.90;;;;;;5115607;27;20181;-72
2021/12/19 04:10:30;;;;;;;11.80;3.07;;;7.90;99.90;;;;;;5134244;27;20173;-72
2021/12/19 04:12:56;;;;;;;6.17;2.67;;;8.00;99.90;;;;;;5152628;22;20204;-69
2021/12/19 04:15:23;;;;;;;4.67;2.60;;;8.00;99.90;;;;;;5058853;28;20703;-70
2021/12/19 04:17:48;;;;;;;8.53;2.60;;;8.00;99.90;;;;;;5090932;28;20269;-70
2021/12/19 04:20:15;;;;;;;3.70;2.73;;;8.00;99.90;;;;;;5095758;28;20216;-70
2021/12/19 04:22:42;;;;;;;5.03;2.80;;;8.00;99.90;;;;;;5113702;28;20258;-70
2021/12/19 04:25:08;;;;;;;4.13;2.63;;;8.00;99.90;;;;;;5095422;28;20166;-71
2021/12/19 04:27:34;;;;;;;4.57;2.90;;;8.00;99.90;;;;;;5113876;28;20252;-70
2021/12/19 04:30:00;;;;;;;6.87;2.67;;;8.00;99.90;;;;;;5095209;28;20208;-70
2021/12/19 04:32:31;;;;;;;5.50;2.77;;;7.90;99.90;;;;;;5095183;28;20205;-70
2021/12/19 04:34:58;;;;;;;5.67;3.33;;;8.00;99.90;;;;;;5095247;28;20212;-70
2021/12/19 04:40:10;;;;;;;4.70;2.47;;;8.00;99.90;;;;;;5113216;28;20165;-70
2021/12/19 05:00:43;;;;;;;5.37;3.40;;;8.00;99.90;;;;;;5113951;28;20162;-71
2021/12/19 05:03:26;;;;;;;5.13;3.37;;;8.00;99.90;;;;;;5095624;28;20217;-70
2021/12/19 05:14:09;;;;;;;5.97;3.50;;;7.90;99.90;;;;;;5113749;28;20220;-71
2021/12/19 05:16:39;;;;;;;7.13;3.90;;;7.90;99.90;;;;;;5113817;28;20161;-71
2021/12/19 05:19:17;;;;;;;11.43;3.87;;;7.90;99.90;;;;;;5095546;28;20173;-71
2021/12/19 05:21:42;;;;;;;9.37;3.60;;;7.80;99.90;;;;;;5095553;28;20529;-70
2021/12/19 05:24:32;;;;;;;6.97;3.13;;;7.90;99.90;;;;;;5114182;28;20197;-74
2021/12/19 05:26:58;;;;;;;11.13;3.70;;;7.80;99.90;;;;;;5095945;28;20178;-74
2021/12/19 05:29:23;;;;;;;9.83;3.80;;;7.90;99.90;;;;;;5114679;28;20656;-74
2021/12/19 05:31:49;;;;;;;9.00;3.60;;;7.80;99.90;;;;;;5097086;28;20181;-73
2021/12/19 05:34:14;;;;;;;4.90;3.37;;;7.80;99.90;;;;;;5096461;28;20201;-74
2021/12/19 05:47:24;;;;;;;7.67;3.50;;;7.80;99.90;;;;;;5114463;28;20173;-73
2021/12/19 05:49:50;;;;;;;10.70;4.13;;;7.80;99.90;;;;;;5112706;28;20546;-73
2021/12/19 05:52:15;;;;;;;6.87;3.03;;;7.80;99.90;;;;;;5094015;28;20322;-73
2021/12/19 05:54:41;;;;;;;9.53;3.83;;;7.80;99.90;;;;;;5094127;28;20245;-73
2021/12/19 05:57:07;;;;;;;7.37;3.47;;;7.70;99.90;;;;;;5093984;28;20165;-73
2021/12/19 05:59:32;;;;;;;12.30;3.47;;;7.70;99.90;;;;;;5112136;28;20618;-74
2021/12/19 06:01:58;;;;;;;8.73;3.77;;;7.70;99.90;;;;;;5093587;28;20170;-74
2021/12/19 06:04:23;;;;;;;7.57;3.43;;;7.70;99.90;;;;;;5094135;28;20563;-73
2021/12/19 06:06:51;;;;;;;7.90;3.20;;;7.60;99.90;;;;;;5094418;28;20196;-73
2021/12/19 06:09:16;;;;;;;9.17;3.10;;;7.70;99.90;;;;;;5093620;28;20177;-73
2021/12/19 06:11:42;;;;;;;12.17;3.80;;;7.70;99.90;;;;;;5111620;28;20185;-73
2021/12/19 06:14:08;;;;;;;7.07;3.63;;;7.60;99.90;;;;;;5093303;28;20276;-73
2021/12/19 06:16:34;;;;;;;12.03;3.50;;;7.60;99.90;;;;;;5093697;28;20176;-73
2021/12/19 06:18:59;;;;;;;10.03;3.57;;;7.50;99.90;;;;;;5093421;28;20261;-73
2021/12/19 06:21:25;;;;;;;11.30;4.40;;;7.60;99.90;;;;;;5093685;28;20173;-73
2021/12/19 06:23:51;;;;;;;8.77;3.47;;;7.50;99.90;;;;;;5093720;28;20196;-73
2021/12/19 06:26:16;;;;;;;10.37;3.70;;;7.50;99.90;;;;;;5093542;28;20174;-73
2021/12/19 06:28:43;;;;;;;7.90;3.30;;;7.50;99.90;;;;;;5111519;28;20508;-73
2021/12/19 06:31:08;;;;;;;10.80;3.73;;;7.50;99.90;;;;;;5093582;28;20177;-73
2021/12/19 06:33:34;;;;;;;8.53;3.50;;;7.50;99.90;;;;;;5093358;28;20266;-73
2021/12/19 06:36:00;;;;;;;9.47;3.57;;;7.50;99.90;;;;;;5111680;28;20181;-73
2021/12/19 06:38:25;;;;;;;6.60;3.30;;;7.50;99.90;;;;;;5093125;28;20575;-73
2021/12/19 06:40:51;;;;;;;9.30;3.60;;;7.60;99.90;;;;;;5111373;28;20559;-73
2021/12/19 06:43:16;;;;;;;9.97;2.77;;;7.50;99.90;;;;;;5111619;28;20212;-72
2021/12/19 06:45:42;;;;;;;8.43;2.53;;;7.50;99.90;;;;;;5111710;28;20178;-73
2021/12/19 06:48:08;;;;;;;7.07;2.37;;;7.50;99.90;;;;;;5111331;28;20197;-72
2021/12/19 06:50:33;;;;;;;7.97;2.70;;;7.50;99.90;;;;;;5093346;28;20173;-73
2021/12/19 06:52:59;;;;;;;6.37;2.03;;;7.50;99.90;;;;;;5093112;28;20161;-73
2021/12/19 06:55:25;;;;;;;6.07;2.20;;;7.60;99.90;;;;;;5093158;28;20166;-73
2021/12/19 06:57:51;;;;;;;5.13;2.77;;;7.60;99.90;;;;;;5111095;28;20174;-73
2021/12/19 07:00:19;;;;;;;3.80;2.37;;;7.60;99.90;;;;;;5093371;28;20253;-73
2021/12/19 07:02:45;;;;;;;7.00;3.33;;;7.60;99.90;;;;;;5111517;28;20561;-73
2021/12/19 07:05:11;;;;;;;7.20;2.90;;;7.60;99.90;;;;;;5093240;28;20215;-73
2021/12/19 07:07:36;;;;;;;4.83;2.17;;;7.60;99.90;;;;;;5111785;28;20214;-73
2021/12/19 07:10:03;;;;;;;4.70;2.30;;;7.50;99.90;;;;;;5111003;28;20219;-72
2021/12/19 07:12:29;;;;;;;8.10;3.00;;;7.50;99.90;;;;;;5093956;28;20197;-73
2021/12/19 07:14:55;;;;;;;5.00;2.50;;;7.60;99.90;;;;;;5114930;28;20234;-73
2021/12/19 07:17:21;;;;;;;5.53;2.50;;;7.60;99.90;;;;;;5115448;28;20257;-73
2021/12/19 07:19:46;;;;;;;6.33;2.60;;;7.60;99.90;;;;;;5097426;28;20201;-73
2021/12/19 07:22:12;;;;;;;7.07;2.93;;;7.60;99.90;;;;;;5096674;28;20166;-73
2021/12/19 07:24:38;;;;;;;7.30;3.00;;;7.60;99.90;;;;;;5115408;28;20189;-73
2021/12/19 07:27:03;;;;;;;9.97;3.00;;;7.60;99.90;;;;;;5114984;28;20178;-73
2021/12/19 07:29:30;;;;;;;9.00;2.97;;;7.60;99.90;;;;;;5114592;28;20692;-73
2021/12/19 07:31:57;;;;;;;5.77;2.43;;;7.60;99.90;;;;;;5096471;28;20178;-73
2021/12/19 07:34:29;;;;;;;6.27;2.57;;;7.50;99.90;;;;;;5096550;28;20194;-73
2021/12/19 07:36:55;;;;;;;6.83;2.40;;;7.50;99.90;;;;;;5096285;28;20256;-72
2021/12/19 07:39:37;;;;;;;9.37;2.30;;;7.50;99.90;;;;;;5096569;28;20735;-73
2021/12/19 07:42:05;;;;;;;4.97;1.90;;;7.40;99.90;;;;;;5096696;28;20193;-73
2021/12/19 07:44:30;;;;;;;4.07;1.50;;;7.40;99.90;;;;;;5096805;28;20190;-73
2021/12/19 07:46:56;;;;;;;6.73;1.93;;;7.40;99.90;;;;;;5096805;28;20652;-73
2021/12/19 07:49:22;;;;;;;3.53;1.73;;;7.40;99.90;;;;;;5096318;28;20169;-73
2021/12/19 07:51:47;;;;;;;2.03;1.37;;;7.40;99.90;;;;;;5096900;28;20268;-73
2021/12/19 07:54:13;;;;;;;1.80;0.97;;;7.40;99.90;;;;;;5096752;28;20205;-73
2021/12/19 07:56:39;;;;;;;2.63;1.13;;;7.50;99.90;;;;;;5096290;28;20166;-73
2021/12/19 07:59:05;;;;;;;4.37;1.10;;;7.50;99.90;;;;;;5096929;28;20166;-73
2021/12/19 08:01:31;;;;;;;2.23;1.00;;;7.50;99.90;;;;;;5114604;28;20176;-74
2021/12/19 08:03:56;;;;;;;3.67;1.17;;;7.50;99.90;;;;;;5096477;28;20212;-73
2021/12/19 08:06:22;;;;;;;3.77;1.03;;;7.50;99.90;;;;;;5096352;28;20177;-73
2021/12/19 08:08:52;;;;;;;3.27;1.60;;;7.50;99.90;;;;;;5096505;28;20188;-73
2021/12/19 08:14:02;;;;;;;0.77;0.77;;;7.50;99.90;;;;;;5115534;28;20375;-73
2021/12/19 08:16:28;;;;;;;3.27;1.40;;;7.50;99.90;;;;;;5096980;28;20173;-73
2021/12/19 08:18:54;;;;;;;4.63;1.50;;;7.50;99.90;;;;;;5096346;28;20173;-73
2021/12/19 08:21:20;;;;;;;4.40;1.67;;;7.40;99.90;;;;;;5096077;28;20174;-74
2021/12/19 08:23:46;;;;;;;4.83;1.63;;;7.40;99.90;;;;;;5114360;28;20202;-73
2021/12/19 08:26:12;;;;;;;3.70;1.77;;;7.40;99.90;;;;;;5095983;28;20664;-74
2021/12/19 08:28:37;;;;;;;3.83;1.90;;;7.50;99.90;;;;;;5095671;28;20523;-74
2021/12/19 08:31:03;;;;;;;3.57;1.20;;;7.50;99.90;;;;;;5095520;28;20595;-74
2021/12/19 08:33:29;;;;;;;2.90;1.20;;;7.40;99.90;;;;;;5095600;28;20622;-73
2021/12/19 08:35:55;;;;;;;4.13;1.87;;;7.50;99.90;;;;;;5096233;28;20192;-74
2021/12/19 08:38:20;;;;;;;3.83;1.20;;;7.50;99.90;;;;;;5095588;28;20178;-73
2021/12/19 08:40:48;;;;;;;1.80;1.30;;;7.50;99.90;;;;;;5095696;28;20671;-73
2021/12/19 08:43:14;;;;;;;3.70;1.50;;;7.50;99.90;;;;;;5095538;28;20673;-73
2021/12/19 08:45:40;;;;;;;3.23;1.07;;;7.50;99.90;;;;;;5114324;28;20230;-74
2021/12/19 08:48:06;;;;;;;2.60;1.10;;;7.50;99.90;;;;;;5094882;28;20177;-74
2021/12/19 08:50:32;;;;;;;5.83;1.27;;;7.40;99.90;;;;;;5113706;28;20174;-73
2021/12/19 08:52:57;;;;;;;3.00;1.30;;;7.50;99.90;;;;;;5113267;28;20542;-73
2021/12/19 08:55:23;;;;;;;2.23;1.20;;;7.50;99.90;;;;;;5113790;28;20191;-73
2021/12/19 08:57:49;;;;;;;3.07;1.47;;;7.50;99.90;;;;;;5113512;28;20231;-73
2021/12/19 09:00:17;;;;;;;2.40;1.63;;;7.50;99.90;;;;;;5095763;28;20534;-73
2021/12/19 09:02:44;;;;;;;3.97;1.17;;;7.50;99.90;;;;;;5087127;28;20244;-72
2021/12/19 09:05:10;;;;;;;3.90;1.20;;;7.50;99.90;;;;;;5113121;28;20190;-73
2021/12/19 09:07:36;;;;;;;4.70;1.50;;;7.50;99.90;;;;;;5105057;28;20546;-74
2021/12/19 09:10:03;;;;;;;3.30;1.50;;;7.40;99.90;;;;;;5112710;28;20189;-73
2021/12/19 09:12:28;;;;;;;4.23;1.40;;;7.40;99.90;;;;;;5103584;28;20239;-73
2021/12/19 09:14:54;;;;;;;3.37;1.40;;;7.40;99.90;;;;;;5105070;28;20209;-73
2021/12/19 09:17:20;;;;;;;3.50;1.07;;;7.30;99.90;;;;;;5112783;28;20201;-72
2021/12/19 09:19:46;;;;;;;3.67;2.00;;;7.40;99.90;;;;;;5086226;28;20178;-73
2021/12/19 09:22:11;;;;;;;3.77;1.90;;;7.30;99.90;;;;;;5112117;28;20186;-73
2021/12/19 09:24:37;;;;;;;2.87;1.60;;;7.40;99.90;;;;;;5103896;28;20319;-73
2021/12/19 09:27:03;;;;;;;2.33;1.23;;;7.40;99.90;;;;;;5091242;28;20178;-73
2021/12/19 09:29:29;;;;;;;3.53;1.90;;;7.40;99.90;;;;;;5111185;28;20531;-72
2021/12/19 09:31:56;;;;;;;6.13;1.93;;;7.40;99.90;;;;;;5106242;28;20180;-72
2021/12/19 09:34:23;;;;;;;5.23;2.03;;;7.40;99.90;;;;;;5087534;28;20607;-73
2021/12/19 09:36:49;;;;;;;4.73;2.30;;;7.40;99.90;;;;;;5112017;28;20594;-73
2021/12/19 09:39:15;;;;;;;4.43;1.60;;;7.40;99.90;;;;;;5085866;28;20182;-73
2021/12/19 09:41:44;;;;;;;4.67;2.07;;;7.40;99.90;;;;;;5090305;28;20198;-73
2021/12/19 09:44:13;;;;;;;3.70;1.73;;;7.40;99.90;;;;;;5099967;28;20312;-72
2021/12/19 09:46:42;;;;;;;3.80;2.43;;;7.40;99.90;;;;;;5104159;28;20190;-73
2021/12/19 09:49:11;;;;;;;4.97;1.50;;;7.40;99.90;;;;;;5112342;28;20193;-74
2021/12/19 09:51:38;;;;;;;4.07;1.67;;;7.50;99.90;;;;;;5105177;28;20173;-73
2021/12/19 09:54:06;;;;;;;3.13;1.60;;;7.50;99.90;;;;;;5090339;28;20240;-73
2021/12/19 09:56:34;;;;;;;4.80;1.83;;;7.50;99.90;;;;;;5090916;28;20213;-73
2021/12/19 09:59:06;;;;;;;5.03;1.80;;;7.50;99.90;;;;;;5086487;28;20169;-73
2021/12/19 10:01:32;;;;;;;5.77;2.33;;;7.50;99.90;;;;;;5111060;28;20242;-73
2021/12/19 10:03:57;;;;;;;2.83;1.60;;;7.50;99.90;;;;;;5106224;28;20202;-73
2021/12/19 10:06:26;;;;;;;4.30;1.80;;;7.50;99.90;;;;;;5086526;28;20935;-73
2021/12/19 10:09:12;;;;;;;4.60;1.93;;;7.40;99.90;;;;;;5086596;28;20208;-73
2021/12/19 10:11:57;;;;;;;4.47;1.90;;;7.40;99.90;;;;;;5104443;28;20165;-73
2021/12/19 10:14:23;;;;;;;3.37;1.13;;;7.50;99.90;;;;;;5112772;28;20665;-70
2021/12/19 10:16:48;;;;;;;2.80;1.70;;;7.50;99.90;;;;;;5081203;28;20212;-70
2021/12/19 10:19:14;;;;;;;4.97;1.50;;;7.50;99.90;;;;;;5106630;28;20190;-70
2021/12/19 10:21:39;;;;;;;2.17;1.20;;;7.70;99.90;;;;;;5103894;28;20165;-71
2021/12/19 10:24:06;;;;;;;4.47;1.67;;;7.70;99.90;;;;;;5115104;27;20559;-70
2021/12/19 10:26:43;;;;;;;4.30;1.67;;;7.70;99.90;;;;;;5087276;28;20274;-71
2021/12/19 10:29:10;;;;;;;3.23;1.20;;;7.60;99.90;;;;;;5132521;28;20165;-71
2021/12/19 10:31:36;;;;;;;1.67;1.17;;;7.60;99.90;;;;;;5105535;28;20193;-70
2021/12/19 10:34:22;;;;;;;3.53;1.63;;;7.70;99.90;;;;;;5111671;28;20209;-71
2021/12/19 10:36:48;;;;;;;4.93;1.10;;;7.60;99.90;;;;;;5108276;28;20189;-71
2021/12/19 10:39:17;;;;;;;4.13;1.70;;;7.50;99.90;;;;;;5087645;28;20197;-70
2021/12/19 10:41:43;;;;;;;7.37;1.93;;;7.50;99.90;;;;;;5112071;28;20176;-71
2021/12/19 10:45:29;;;;;;;5.63;1.77;;;7.50;99.90;;;;;;5112009;28;20216;-70
2021/12/19 10:47:22;;;;;;;3.63;1.80;;;7.60;99.90;;;;;;5113045;28;20630;-70
2021/12/19 10:49:48;;;;;;;4.70;1.97;;;7.60;99.90;;;;;;5097153;28;20166;-69
2021/12/19 10:52:14;;;;;;;5.20;1.93;;;7.60;99.90;;;;;;5097998;28;20539;-70
2021/12/19 10:54:59;;;;;;;7.20;1.27;;;7.60;99.90;;;;;;5117241;28;20209;-71
2021/12/19 10:57:34;;;;;;;6.67;1.57;;;7.50;99.90;;;;;;5124435;27;20287;-70
2021/12/19 11:00:00;;;;;;;6.00;1.77;;;7.50;99.90;;;;;;5107536;28;20205;-71
2021/12/19 11:02:42;;;;;;;7.20;1.63;;;7.60;99.90;;;;;;5088272;28;20638;-70
2021/12/19 11:05:38;;;;;;;3.80;1.37;;;7.60;99.90;;;;;;5115735;28;20239;-70
2021/12/19 11:08:06;;;;;;;4.97;1.27;;;7.60;99.90;;;;;;5115037;28;20162;-70
2021/12/19 11:10:35;;;;;;;4.27;1.93;;;7.60;99.90;;;;;;5114322;28;20592;-72
2021/12/19 11:13:16;;;;;;;5.40;1.27;;;7.60;99.90;;;;;;5106275;28;20197;-71
2021/12/19 11:15:42;;;;;;;4.57;1.77;;;7.60;99.90;;;;;;5096994;28;20177;-70
2021/12/19 11:18:09;;;;;;;7.10;1.90;;;7.70;99.90;;;;;;5114535;28;20174;-70
2021/12/19 11:20:34;;;;;;;6.50;1.73;;;7.60;99.90;;;;;;5115293;28;20162;-70
2021/12/19 11:23:00;;;;;;;4.53;1.53;;;7.60;99.90;;;;;;5114871;28;20198;-70
2021/12/19 11:25:27;;;;;;;9.03;2.50;;;7.60;99.90;;;;;;5115293;28;20214;-70
2021/12/19 11:27:53;;;;;;;7.47;2.47;;;7.70;99.90;;;;;;5114301;28;20185;-70
2021/12/19 11:30:19;;;;;;;9.27;3.20;;;7.70;99.90;;;;;;5115023;28;20174;-69
2021/12/19 11:33:17;;;;;;;10.47;3.30;;;7.80;99.90;;;;;;5114727;28;20649;-70
2021/12/19 11:35:46;;;;;;;11.43;3.53;;;7.80;99.90;;;;;;5114975;28;20587;-70
2021/12/19 11:38:17;;;;;;;10.80;2.23;;;7.80;99.90;;;;;;5096430;28;20166;-71
2021/12/19 11:40:43;;;;;;;12.23;3.33;;;7.90;99.90;;;;;;5111147;28;20170;-70
2021/12/19 11:43:10;;;;;;;9.90;3.27;;;8.10;99.90;;;;;;5109613;28;20193;-71
2021/12/19 11:45:43;;;;;;;9.47;2.03;;;8.20;99.90;;;;;;5114857;28;20201;-69
2021/12/19 11:48:22;;;;;;;6.17;2.00;;;8.30;99.90;;;;;;5113934;28;20169;-68
2021/12/19 11:50:55;;;;;;;7.47;3.07;;;8.20;99.90;;;;;;5106116;28;20253;-71
2021/12/19 11:53:29;;;;;;;8.13;1.73;;;8.00;99.90;;;;;;5095503;28;20209;-71
2021/12/19 11:56:09;;;;;;;7.70;2.10;;;7.90;99.90;;;;;;5107265;28;20268;-70
2021/12/19 11:58:49;;;;;;;8.43;2.03;;;7.80;99.90;;;;;;5095206;28;20575;-70
2021/12/19 12:01:23;;;;;;;5.60;1.93;;;7.80;99.90;;;;;;5095959;28;20527;-70
2021/12/19 12:04:01;;;;;;;11.60;2.00;;;7.80;99.90;;;;;;5114057;28;20189;-69
2021/12/19 12:06:31;;;;;;;6.70;2.23;;;7.70;99.90;;;;;;5106069;28;20234;-70
2021/12/19 12:09:04;;;;;;;8.67;2.43;;;7.70;99.90;;;;;;5113575;28;20178;-72
2021/12/19 12:11:30;;;;;;;6.50;2.53;;;7.70;99.90;;;;;;5108868;28;20634;-70
2021/12/19 12:14:19;;;;;;;6.57;2.37;;;7.70;99.90;;;;;;5094321;28;20300;-70
2021/12/19 12:16:57;;;;;;;4.37;2.00;;;7.70;99.90;;;;;;5094824;28;20210;-68
2021/12/19 12:19:48;;;;;;;7.57;2.77;;;7.60;99.90;;;;;;5113687;28;20181;-71
2021/12/19 12:22:26;;;;;;;4.37;2.10;;;7.60;99.90;;;;;;5125582;28;20265;-68
2021/12/19 12:25:18;;;;;;;5.13;1.63;;;7.60;99.90;;;;;;5115020;28;20185;-69
2021/12/19 12:27:50;;;;;;;5.17;2.00;;;7.60;99.90;;;;;;5095224;28;20209;-74
2021/12/19 12:30:23;;;;;;;7.23;2.50;;;7.60;99.90;;;;;;5096360;28;20514;-74
2021/12/19 12:32:49;;;;;;;7.33;2.43;;;7.60;99.90;;;;;;5113668;28;20218;-74
2021/12/19 12:35:16;;;;;;;5.30;2.30;;;7.70;99.90;;;;;;5113678;28;20301;-71
2021/12/19 12:37:43;;;;;;;6.60;2.10;;;7.60;99.90;;;;;;5113558;28;20158;-69
2021/12/19 12:40:25;;;;;;;8.00;1.97;;;7.60;99.90;;;;;;5113018;28;20166;-70
2021/12/19 12:43:05;;;;;;;8.67;2.00;;;7.60;99.90;;;;;;5112874;28;20200;-70
2021/12/19 12:45:53;;;;;;;3.80;1.83;;;7.60;99.90;;;;;;5113256;28;20520;-69
2021/12/19 12:48:45;;;;;;;6.73;2.40;;;7.60;99.90;;;;;;5112802;28;20209;-69
2021/12/19 12:51:35;;;;;;;5.13;2.30;;;7.60;99.90;;;;;;5112761;28;20548;-70
2021/12/19 12:54:25;;;;;;;5.17;1.50;;;7.60;99.90;;;;;;5112330;28;20284;-69
2021/12/19 12:56:53;;;;;;;4.90;2.10;;;7.60;99.90;;;;;;5094526;28;20166;-69
2021/12/19 12:59:25;;;;;;;4.37;1.90;;;7.60;99.90;;;;;;5112191;28;20637;-68
2021/12/19 13:02:07;;;;;;;6.53;1.90;;;7.60;99.90;;;;;;5094116;28;20227;-68
2021/12/19 13:04:34;;;;;;;6.17;1.70;;;7.70;99.90;;;;;;5094463;28;20210;-68
2021/12/19 13:07:06;;;;;;;10.93;1.53;;;7.60;99.90;;;;;;5094718;28;20178;-68
2021/12/19 13:09:43;;;;;;;9.00;2.00;;;7.60;99.90;;;;;;5111628;28;20166;-71
2021/12/19 13:12:12;;;;;;;5.47;1.87;;;7.60;99.90;;;;;;5112359;28;20161;-68
2021/12/19 13:14:46;;;;;;;4.40;1.23;;;7.60;99.90;;;;;;5112010;28;20202;-69
2021/12/19 13:17:21;;;;;;;4.70;1.73;;;7.60;99.90;;;;;;5112348;28;20247;-68
2021/12/19 13:19:53;;;;;;;4.13;1.53;;;7.60;99.90;;;;;;5112557;28;20157;-69
2021/12/19 13:22:20;;;;;;;3.50;1.60;;;7.60;99.90;;;;;;5093324;28;20165;-73
2021/12/19 13:24:47;;;;;;;3.60;1.43;;;7.60;99.90;;;;;;5093162;28;20189;-69
2021/12/19 13:27:15;;;;;;;4.80;1.47;;;7.60;99.90;;;;;;5103161;28;20169;-70
2021/12/19 13:29:54;;;;;;;6.83;1.87;;;7.60;99.90;;;;;;5093113;28;20176;-70
2021/12/19 13:32:28;;;;;;;4.43;1.70;;;7.60;99.90;;;;;;5111904;28;20177;-69
2021/12/19 13:34:54;;;;;;;6.17;1.57;;;7.50;99.90;;;;;;5093137;28;20220;-71
2021/12/19 13:37:21;;;;;;;5.23;1.60;;;7.50;99.90;;;;;;5114718;27;20177;-70
2021/12/19 13:40:09;;;;;;;5.57;1.90;;;7.60;99.90;;;;;;5128699;27;20169;-69
2021/12/19 13:42:56;;;;;;;3.57;1.53;;;7.60;99.90;;;;;;5090965;28;20167;-69
2021/12/19 13:45:45;;;;;;;3.93;1.53;;;7.60;99.90;;;;;;5106070;28;20170;-69
2021/12/19 13:48:20;;;;;;;11.83;1.30;;;7.60;99.90;;;;;;5100762;28;20186;-71
2021/12/19 13:51:19;;;;;;;3.53;1.57;;;7.60;99.90;;;;;;5111850;28;20578;-70
2021/12/19 13:53:47;;;;;;;5.33;1.40;;;7.60;99.90;;;;;;5075255;28;20221;-71
2021/12/19 13:56:15;;;;;;;6.10;1.60;;;7.60;99.90;;;;;;5110310;28;20200;-72
2021/12/19 13:59:03;;;;;;;2.97;1.43;;;7.60;99.90;;;;;;5111468;28;20580;-72
2021/12/19 14:01:33;;;;;;;4.13;1.40;;;7.60;99.90;;;;;;5110689;28;20182;-71
2021/12/19 14:04:18;;;;;;;3.07;1.37;;;7.60;99.90;;;;;;5110925;28;20306;-71
2021/12/19 14:06:48;;;;;;;7.60;2.33;;;7.60;99.90;;;;;;5111005;28;20249;-70
2021/12/19 14:09:18;;;;;;;3.40;1.27;;;7.60;99.90;;;;;;5111108;28;20549;-73